sensor_id;sensor_type;location;lat;lon;timestamp;P1;durP1;ratioP1;P2;durP2;ratioP2
47161;SDS011;32921;53.256;8.198;2023-04-28T00:01:52;19.88;;;13.60;;
47161;SDS011;32921;53.256;8.198;2023-04-28T00:04:17;22.83;;;13.38;;
47161;SDS011;32921;53.256;8.198;2023-04-28T00:06:43;21.80;;;13.95;;
47161;SDS011;32921;53.256;8.198;2023-04-28T00:09:09;25.35;;;14.23;;
47161;SDS011;32921;53.256;8.198;2023-04-28T00:11:35;24.33;;;13.77;;
47161;SDS011;32921;53.256;8.198;2023-04-28T00:14:02;27.48;;;16.23;;
47161;SDS011;32921;53.256;8.198;2023-04-28T00:16:27;27.17;;;14.90;;
47161;SDS011;32921;53.256;8.198;2023-04-28T00:18:53;25.08;;;15.63;;
47161;SDS011;32921;53.256;8.198;2023-04-28T00:21:18;29.13;;;15.88;;
47161;SDS011;32921;53.256;8.198;2023-04-28T00:23:44;28.15;;;15.88;;
47161;SDS011;32921;53.256;8.198;2023-04-28T00:26:09;24.83;;;14.80;;
47161;SDS011;32921;53.256;8.198;2023-04-28T00:28:36;24.70;;;15.55;;
47161;SDS011;32921;53.256;8.198;2023-04-28T00:31:02;26.58;;;15.35;;
47161;SDS011;32921;53.256;8.198;2023-04-28T00:33:38;29.83;;;15.95;;
47161;SDS011;32921;53.256;8.198;2023-04-28T00:36:04;30.58;;;14.82;;
47161;SDS011;32921;53.256;8.198;2023-04-28T00:38:30;26.33;;;15.50;;
47161;SDS011;32921;53.256;8.198;2023-04-28T00:40:56;28.55;;;13.93;;
47161;SDS011;32921;53.256;8.198;2023-04-28T00:43:22;26.15;;;15.05;;
47161;SDS011;32921;53.256;8.198;2023-04-28T00:45:48;25.42;;;14.98;;
47161;SDS011;32921;53.256;8.198;2023-04-28T00:48:14;22.38;;;11.57;;
47161;SDS011;32921;53.256;8.198;2023-04-28T00:50:41;28.88;;;15.77;;
47161;SDS011;32921;53.256;8.198;2023-04-28T00:53:07;30.50;;;16.45;;
47161;SDS011;32921;53.256;8.198;2023-04-28T00:55:34;28.92;;;16.02;;
47161;SDS011;32921;53.256;8.198;2023-04-28T00:58:02;25.42;;;15.30;;
47161;SDS011;32921;53.256;8.198;2023-04-28T01:00:37;24.20;;;16.05;;
47161;SDS011;32921;53.256;8.198;2023-04-28T01:03:03;31.08;;;15.40;;
47161;SDS011;32921;53.256;8.198;2023-04-28T01:05:29;30.27;;;16.55;;
47161;SDS011;32921;53.256;8.198;2023-04-28T01:07:55;29.70;;;16.05;;
47161;SDS011;32921;53.256;8.198;2023-04-28T01:10:22;29.17;;;16.27;;
47161;SDS011;32921;53.256;8.198;2023-04-28T01:12:47;29.30;;;16.15;;
47161;SDS011;32921;53.256;8.198;2023-04-28T01:15:16;28.73;;;16.63;;
47161;SDS011;32921;53.256;8.198;2023-04-28T01:17:44;28.13;;;15.98;;
47161;SDS011;32921;53.256;8.198;2023-04-28T01:20:11;28.05;;;16.00;;
47161;SDS011;32921;53.256;8.198;2023-04-28T01:22:37;32.75;;;15.98;;
47161;SDS011;32921;53.256;8.198;2023-04-28T01:25:02;30.30;;;16.70;;
47161;SDS011;32921;53.256;8.198;2023-04-28T01:27:28;29.30;;;16.10;;
47161;SDS011;32921;53.256;8.198;2023-04-28T01:29:54;29.50;;;16.38;;
47161;SDS011;32921;53.256;8.198;2023-04-28T01:32:21;27.08;;;16.25;;
47161;SDS011;32921;53.256;8.198;2023-04-28T01:34:46;31.05;;;15.88;;
47161;SDS011;32921;53.256;8.198;2023-04-28T01:37:12;27.00;;;15.25;;
47161;SDS011;32921;53.256;8.198;2023-04-28T01:39:37;26.67;;;15.15;;
47161;SDS011;32921;53.256;8.198;2023-04-28T01:42:03;27.75;;;15.15;;
47161;SDS011;32921;53.256;8.198;2023-04-28T01:44:29;27.83;;;15.88;;
47161;SDS011;32921;53.256;8.198;2023-04-28T01:46:54;25.88;;;15.25;;
47161;SDS011;32921;53.256;8.198;2023-04-28T01:49:20;26.30;;;15.27;;
47161;SDS011;32921;53.256;8.198;2023-04-28T01:51:45;28.67;;;14.82;;
47161;SDS011;32921;53.256;8.198;2023-04-28T01:54:11;24.05;;;14.98;;
47161;SDS011;32921;53.256;8.198;2023-04-28T01:56:37;26.30;;;14.90;;
47161;SDS011;32921;53.256;8.198;2023-04-28T01:59:02;31.40;;;16.17;;
47161;SDS011;32921;53.256;8.198;2023-04-28T02:01:28;27.58;;;15.30;;
47161;SDS011;32921;53.256;8.198;2023-04-28T02:03:53;28.25;;;16.05;;
47161;SDS011;32921;53.256;8.198;2023-04-28T02:06:19;26.23;;;15.10;;
47161;SDS011;32921;53.256;8.198;2023-04-28T02:08:45;26.08;;;14.73;;
47161;SDS011;32921;53.256;8.198;2023-04-28T02:11:10;27.67;;;14.93;;
47161;SDS011;32921;53.256;8.198;2023-04-28T02:13:36;25.80;;;14.60;;
47161;SDS011;32921;53.256;8.198;2023-04-28T02:16:02;29.15;;;15.70;;
47161;SDS011;32921;53.256;8.198;2023-04-28T02:18:27;27.30;;;15.23;;
47161;SDS011;32921;53.256;8.198;2023-04-28T02:20:53;23.42;;;14.35;;
47161;SDS011;32921;53.256;8.198;2023-04-28T02:23:19;28.08;;;15.52;;
47161;SDS011;32921;53.256;8.198;2023-04-28T02:25:44;29.88;;;15.05;;
47161;SDS011;32921;53.256;8.198;2023-04-28T02:28:10;28.27;;;15.80;;
47161;SDS011;32921;53.256;8.198;2023-04-28T02:30:35;23.48;;;14.90;;
47161;SDS011;32921;53.256;8.198;2023-04-28T02:33:01;26.63;;;14.70;;
47161;SDS011;32921;53.256;8.198;2023-04-28T02:35:26;24.60;;;14.73;;
47161;SDS011;32921;53.256;8.198;2023-04-28T02:37:52;24.60;;;14.05;;
47161;SDS011;32921;53.256;8.198;2023-04-28T02:40:18;30.75;;;15.60;;
47161;SDS011;32921;53.256;8.198;2023-04-28T02:42:43;22.73;;;12.18;;
47161;SDS011;32921;53.256;8.198;2023-04-28T02:45:09;25.00;;;14.60;;
47161;SDS011;32921;53.256;8.198;2023-04-28T02:47:35;28.48;;;15.10;;
47161;SDS011;32921;53.256;8.198;2023-04-28T02:50:01;28.40;;;15.35;;
47161;SDS011;32921;53.256;8.198;2023-04-28T02:52:26;28.27;;;14.55;;
47161;SDS011;32921;53.256;8.198;2023-04-28T02:54:52;25.80;;;14.93;;
47161;SDS011;32921;53.256;8.198;2023-04-28T02:57:21;27.35;;;14.85;;
47161;SDS011;32921;53.256;8.198;2023-04-28T02:59:46;28.65;;;16.40;;
47161;SDS011;32921;53.256;8.198;2023-04-28T03:02:12;27.67;;;15.32;;
47161;SDS011;32921;53.256;8.198;2023-04-28T03:04:37;29.15;;;15.18;;
47161;SDS011;32921;53.256;8.198;2023-04-28T03:07:03;29.75;;;14.70;;
47161;SDS011;32921;53.256;8.198;2023-04-28T03:09:29;25.10;;;14.63;;
47161;SDS011;32921;53.256;8.198;2023-04-28T03:11:55;28.80;;;15.90;;
47161;SDS011;32921;53.256;8.198;2023-04-28T03:14:20;27.25;;;14.50;;
47161;SDS011;32921;53.256;8.198;2023-04-28T03:16:46;32.28;;;15.73;;
47161;SDS011;32921;53.256;8.198;2023-04-28T03:19:11;29.15;;;14.10;;
47161;SDS011;32921;53.256;8.198;2023-04-28T03:21:37;30.38;;;14.52;;
47161;SDS011;32921;53.256;8.198;2023-04-28T03:24:02;30.27;;;15.20;;
47161;SDS011;32921;53.256;8.198;2023-04-28T03:26:28;31.23;;;14.73;;
47161;SDS011;32921;53.256;8.198;2023-04-28T03:28:54;28.00;;;15.82;;
47161;SDS011;32921;53.256;8.198;2023-04-28T03:31:20;26.98;;;15.68;;
47161;SDS011;32921;53.256;8.198;2023-04-28T03:33:46;26.85;;;15.73;;
47161;SDS011;32921;53.256;8.198;2023-04-28T03:36:12;25.30;;;15.40;;
47161;SDS011;32921;53.256;8.198;2023-04-28T03:38:37;36.33;;;16.25;;
47161;SDS011;32921;53.256;8.198;2023-04-28T03:41:03;29.35;;;17.25;;
47161;SDS011;32921;53.256;8.198;2023-04-28T03:43:28;29.42;;;16.23;;
47161;SDS011;32921;53.256;8.198;2023-04-28T03:45:54;34.15;;;16.15;;
47161;SDS011;32921;53.256;8.198;2023-04-28T03:48:20;28.13;;;17.15;;
47161;SDS011;32921;53.256;8.198;2023-04-28T03:50:45;33.58;;;16.27;;
47161;SDS011;32921;53.256;8.198;2023-04-28T03:53:11;26.98;;;15.20;;
47161;SDS011;32921;53.256;8.198;2023-04-28T03:55:37;27.83;;;14.63;;
47161;SDS011;32921;53.256;8.198;2023-04-28T03:58:02;28.48;;;15.73;;
47161;SDS011;32921;53.256;8.198;2023-04-28T04:00:28;30.08;;;15.55;;
47161;SDS011;32921;53.256;8.198;2023-04-28T04:02:54;26.88;;;15.30;;
47161;SDS011;32921;53.256;8.198;2023-04-28T04:05:19;29.15;;;15.45;;
47161;SDS011;32921;53.256;8.198;2023-04-28T04:07:45;26.33;;;15.95;;
47161;SDS011;32921;53.256;8.198;2023-04-28T04:10:10;30.58;;;16.10;;
47161;SDS011;32921;53.256;8.198;2023-04-28T04:12:36;29.35;;;16.60;;
47161;SDS011;32921;53.256;8.198;2023-04-28T04:15:01;27.67;;;16.02;;
47161;SDS011;32921;53.256;8.198;2023-04-28T04:17:27;29.30;;;17.52;;
47161;SDS011;32921;53.256;8.198;2023-04-28T04:19:53;28.55;;;15.68;;
47161;SDS011;32921;53.256;8.198;2023-04-28T04:22:18;34.00;;;16.60;;
47161;SDS011;32921;53.256;8.198;2023-04-28T04:24:44;27.52;;;15.07;;
47161;SDS011;32921;53.256;8.198;2023-04-28T04:27:09;28.17;;;16.10;;
47161;SDS011;32921;53.256;8.198;2023-04-28T04:29:35;32.38;;;17.50;;
47161;SDS011;32921;53.256;8.198;2023-04-28T04:32:01;27.42;;;15.13;;
47161;SDS011;32921;53.256;8.198;2023-04-28T04:34:27;27.17;;;16.23;;
47161;SDS011;32921;53.256;8.198;2023-04-28T04:36:53;25.67;;;14.90;;
47161;SDS011;32921;53.256;8.198;2023-04-28T04:39:18;35.05;;;16.58;;
47161;SDS011;32921;53.256;8.198;2023-04-28T04:41:44;27.38;;;14.38;;
47161;SDS011;32921;53.256;8.198;2023-04-28T04:44:09;29.83;;;16.00;;
47161;SDS011;32921;53.256;8.198;2023-04-28T04:46:35;32.72;;;15.38;;
47161;SDS011;32921;53.256;8.198;2023-04-28T04:49:01;24.85;;;14.60;;
47161;SDS011;32921;53.256;8.198;2023-04-28T04:51:26;23.60;;;13.85;;
47161;SDS011;32921;53.256;8.198;2023-04-28T04:53:52;23.77;;;14.10;;
47161;SDS011;32921;53.256;8.198;2023-04-28T04:56:18;23.27;;;14.00;;
47161;SDS011;32921;53.256;8.198;2023-04-28T04:58:44;26.52;;;14.23;;
47161;SDS011;32921;53.256;8.198;2023-04-28T05:01:10;24.08;;;14.18;;
47161;SDS011;32921;53.256;8.198;2023-04-28T05:03:35;25.65;;;13.85;;
47161;SDS011;32921;53.256;8.198;2023-04-28T05:06:01;23.38;;;13.73;;
47161;SDS011;32921;53.256;8.198;2023-04-28T05:08:27;22.55;;;13.70;;
47161;SDS011;32921;53.256;8.198;2023-04-28T05:10:53;24.75;;;13.35;;
47161;SDS011;32921;53.256;8.198;2023-04-28T05:13:18;21.80;;;12.65;;
47161;SDS011;32921;53.256;8.198;2023-04-28T05:15:44;19.95;;;11.07;;
47161;SDS011;32921;53.256;8.198;2023-04-28T05:18:10;20.92;;;10.50;;
47161;SDS011;32921;53.256;8.198;2023-04-28T05:20:37;18.40;;;11.10;;
47161;SDS011;32921;53.256;8.198;2023-04-28T05:23:03;19.00;;;11.38;;
47161;SDS011;32921;53.256;8.198;2023-04-28T05:25:28;21.83;;;11.50;;
47161;SDS011;32921;53.256;8.198;2023-04-28T05:27:54;17.33;;;10.80;;
47161;SDS011;32921;53.256;8.198;2023-04-28T05:30:20;22.10;;;10.68;;
47161;SDS011;32921;53.256;8.198;2023-04-28T05:32:46;24.15;;;10.15;;
47161;SDS011;32921;53.256;8.198;2023-04-28T05:35:11;18.60;;;9.15;;
47161;SDS011;32921;53.256;8.198;2023-04-28T05:37:37;17.10;;;8.82;;
47161;SDS011;32921;53.256;8.198;2023-04-28T05:40:03;13.77;;;7.72;;
47161;SDS011;32921;53.256;8.198;2023-04-28T05:42:31;13.90;;;7.28;;
47161;SDS011;32921;53.256;8.198;2023-04-28T05:44:57;12.80;;;8.05;;
47161;SDS011;32921;53.256;8.198;2023-04-28T05:47:23;15.38;;;8.90;;
47161;SDS011;32921;53.256;8.198;2023-04-28T05:49:48;15.52;;;8.35;;
47161;SDS011;32921;53.256;8.198;2023-04-28T05:52:14;12.93;;;7.85;;
47161;SDS011;32921;53.256;8.198;2023-04-28T05:54:39;21.58;;;8.95;;
47161;SDS011;32921;53.256;8.198;2023-04-28T05:57:05;12.13;;;7.05;;
47161;SDS011;32921;53.256;8.198;2023-04-28T05:59:31;15.05;;;8.20;;
47161;SDS011;32921;53.256;8.198;2023-04-28T06:01:57;14.45;;;8.60;;
47161;SDS011;32921;53.256;8.198;2023-04-28T06:04:22;14.88;;;9.02;;
47161;SDS011;32921;53.256;8.198;2023-04-28T06:06:49;15.23;;;8.35;;
47161;SDS011;32921;53.256;8.198;2023-04-28T06:09:14;16.92;;;7.90;;
47161;SDS011;32921;53.256;8.198;2023-04-28T06:11:40;17.25;;;8.43;;
47161;SDS011;32921;53.256;8.198;2023-04-28T06:14:05;13.30;;;7.60;;
47161;SDS011;32921;53.256;8.198;2023-04-28T06:16:31;17.73;;;7.68;;
47161;SDS011;32921;53.256;8.198;2023-04-28T06:18:57;14.32;;;7.60;;
47161;SDS011;32921;53.256;8.198;2023-04-28T06:21:22;11.38;;;6.70;;
47161;SDS011;32921;53.256;8.198;2023-04-28T06:23:49;14.30;;;8.20;;
47161;SDS011;32921;53.256;8.198;2023-04-28T06:26:14;14.38;;;7.75;;
47161;SDS011;32921;53.256;8.198;2023-04-28T06:28:40;11.90;;;7.05;;
47161;SDS011;32921;53.256;8.198;2023-04-28T06:31:06;12.85;;;7.20;;
47161;SDS011;32921;53.256;8.198;2023-04-28T06:33:32;12.35;;;6.72;;
47161;SDS011;32921;53.256;8.198;2023-04-28T06:35:58;13.32;;;6.03;;
47161;SDS011;32921;53.256;8.198;2023-04-28T06:38:23;7.20;;;3.80;;
47161;SDS011;32921;53.256;8.198;2023-04-28T06:40:49;7.97;;;3.50;;
47161;SDS011;32921;53.256;8.198;2023-04-28T06:43:14;8.73;;;4.78;;
47161;SDS011;32921;53.256;8.198;2023-04-28T06:45:40;9.07;;;5.60;;
47161;SDS011;32921;53.256;8.198;2023-04-28T06:48:05;15.07;;;5.93;;
47161;SDS011;32921;53.256;8.198;2023-04-28T06:50:32;12.52;;;5.18;;
47161;SDS011;32921;53.256;8.198;2023-04-28T06:52:57;11.82;;;4.80;;
47161;SDS011;32921;53.256;8.198;2023-04-28T06:55:23;10.80;;;5.25;;
47161;SDS011;32921;53.256;8.198;2023-04-28T06:57:49;10.75;;;5.28;;
47161;SDS011;32921;53.256;8.198;2023-04-28T07:00:15;9.98;;;4.95;;
47161;SDS011;32921;53.256;8.198;2023-04-28T07:02:41;8.10;;;4.30;;
47161;SDS011;32921;53.256;8.198;2023-04-28T07:05:06;13.40;;;5.05;;
47161;SDS011;32921;53.256;8.198;2023-04-28T07:07:32;11.20;;;5.00;;
47161;SDS011;32921;53.256;8.198;2023-04-28T07:09:58;9.95;;;5.30;;
47161;SDS011;32921;53.256;8.198;2023-04-28T07:12:25;7.75;;;3.78;;
47161;SDS011;32921;53.256;8.198;2023-04-28T07:14:51;7.35;;;3.97;;
47161;SDS011;32921;53.256;8.198;2023-04-28T07:17:17;9.27;;;5.00;;
47161;SDS011;32921;53.256;8.198;2023-04-28T07:19:42;11.90;;;5.70;;
47161;SDS011;32921;53.256;8.198;2023-04-28T07:22:08;6.60;;;3.70;;
47161;SDS011;32921;53.256;8.198;2023-04-28T07:24:33;12.18;;;4.60;;
47161;SDS011;32921;53.256;8.198;2023-04-28T07:26:59;12.00;;;5.05;;
47161;SDS011;32921;53.256;8.198;2023-04-28T07:29:25;11.90;;;4.45;;
47161;SDS011;32921;53.256;8.198;2023-04-28T07:34:23;7.95;;;4.25;;
47161;SDS011;32921;53.256;8.198;2023-04-28T07:36:48;12.98;;;5.18;;
47161;SDS011;32921;53.256;8.198;2023-04-28T07:39:14;5.63;;;2.80;;
47161;SDS011;32921;53.256;8.198;2023-04-28T07:41:40;14.25;;;5.35;;
47161;SDS011;32921;53.256;8.198;2023-04-28T07:44:05;10.18;;;4.80;;
47161;SDS011;32921;53.256;8.198;2023-04-28T07:46:34;8.88;;;3.95;;
47161;SDS011;32921;53.256;8.198;2023-04-28T07:49:00;10.27;;;4.90;;
47161;SDS011;32921;53.256;8.198;2023-04-28T07:51:25;16.35;;;5.30;;
47161;SDS011;32921;53.256;8.198;2023-04-28T07:53:51;11.95;;;4.80;;
47161;SDS011;32921;53.256;8.198;2023-04-28T07:56:17;10.50;;;5.78;;
47161;SDS011;32921;53.256;8.198;2023-04-28T07:58:42;14.55;;;5.82;;
47161;SDS011;32921;53.256;8.198;2023-04-28T08:01:08;6.95;;;3.17;;
47161;SDS011;32921;53.256;8.198;2023-04-28T08:03:33;14.07;;;5.38;;
47161;SDS011;32921;53.256;8.198;2023-04-28T08:05:59;14.50;;;5.97;;
47161;SDS011;32921;53.256;8.198;2023-04-28T08:08:25;10.32;;;6.13;;
47161;SDS011;32921;53.256;8.198;2023-04-28T08:10:51;11.55;;;5.55;;
47161;SDS011;32921;53.256;8.198;2023-04-28T08:13:17;7.78;;;4.38;;
47161;SDS011;32921;53.256;8.198;2023-04-28T08:15:43;10.40;;;4.63;;
47161;SDS011;32921;53.256;8.198;2023-04-28T08:18:08;6.45;;;3.03;;
47161;SDS011;32921;53.256;8.198;2023-04-28T08:20:34;8.02;;;3.95;;
47161;SDS011;32921;53.256;8.198;2023-04-28T08:23:00;7.60;;;2.92;;
47161;SDS011;32921;53.256;8.198;2023-04-28T08:25:25;9.57;;;4.15;;
47161;SDS011;32921;53.256;8.198;2023-04-28T08:27:51;10.00;;;3.72;;
47161;SDS011;32921;53.256;8.198;2023-04-28T08:30:17;11.18;;;5.07;;
47161;SDS011;32921;53.256;8.198;2023-04-28T08:32:42;11.73;;;4.97;;
47161;SDS011;32921;53.256;8.198;2023-04-28T08:35:08;13.43;;;4.28;;
47161;SDS011;32921;53.256;8.198;2023-04-28T08:37:34;11.52;;;3.47;;
47161;SDS011;32921;53.256;8.198;2023-04-28T08:40:00;12.25;;;5.03;;
47161;SDS011;32921;53.256;8.198;2023-04-28T08:42:29;11.13;;;5.35;;
47161;SDS011;32921;53.256;8.198;2023-04-28T08:44:56;6.65;;;3.28;;
47161;SDS011;32921;53.256;8.198;2023-04-28T08:47:23;12.98;;;4.97;;
47161;SDS011;32921;53.256;8.198;2023-04-28T08:49:59;10.68;;;4.40;;
47161;SDS011;32921;53.256;8.198;2023-04-28T08:52:27;12.20;;;4.68;;
47161;SDS011;32921;53.256;8.198;2023-04-28T08:54:55;6.65;;;2.47;;
47161;SDS011;32921;53.256;8.198;2023-04-28T08:57:26;9.40;;;4.78;;
47161;SDS011;32921;53.256;8.198;2023-04-28T08:59:53;14.10;;;5.97;;
47161;SDS011;32921;53.256;8.198;2023-04-28T09:02:19;12.07;;;5.20;;
47161;SDS011;32921;53.256;8.198;2023-04-28T09:04:48;9.95;;;4.93;;
47161;SDS011;32921;53.256;8.198;2023-04-28T09:07:14;10.07;;;5.53;;
47161;SDS011;32921;53.256;8.198;2023-04-28T09:09:39;11.82;;;5.95;;
47161;SDS011;32921;53.256;8.198;2023-04-28T09:12:05;12.20;;;5.88;;
47161;SDS011;32921;53.256;8.198;2023-04-28T09:14:35;11.18;;;5.55;;
47161;SDS011;32921;53.256;8.198;2023-04-28T09:17:02;13.75;;;6.50;;
47161;SDS011;32921;53.256;8.198;2023-04-28T09:19:34;9.95;;;5.25;;
47161;SDS011;32921;53.256;8.198;2023-04-28T09:22:01;9.23;;;4.70;;
47161;SDS011;32921;53.256;8.198;2023-04-28T09:24:29;8.98;;;4.45;;
47161;SDS011;32921;53.256;8.198;2023-04-28T09:26:56;14.02;;;5.18;;
47161;SDS011;32921;53.256;8.198;2023-04-28T09:29:23;13.05;;;4.80;;
47161;SDS011;32921;53.256;8.198;2023-04-28T09:31:48;12.63;;;5.05;;
47161;SDS011;32921;53.256;8.198;2023-04-28T09:34:14;15.23;;;6.15;;
47161;SDS011;32921;53.256;8.198;2023-04-28T09:36:40;10.13;;;5.20;;
47161;SDS011;32921;53.256;8.198;2023-04-28T09:39:05;8.20;;;2.80;;
47161;SDS011;32921;53.256;8.198;2023-04-28T09:41:38;10.77;;;5.47;;
47161;SDS011;32921;53.256;8.198;2023-04-28T09:44:17;10.68;;;5.45;;
47161;SDS011;32921;53.256;8.198;2023-04-28T09:46:45;8.90;;;4.32;;
47161;SDS011;32921;53.256;8.198;2023-04-28T09:49:11;11.70;;;4.85;;
47161;SDS011;32921;53.256;8.198;2023-04-28T09:51:37;8.82;;;4.78;;
47161;SDS011;32921;53.256;8.198;2023-04-28T09:54:04;11.90;;;4.53;;
47161;SDS011;32921;53.256;8.198;2023-04-28T09:56:31;8.10;;;5.40;;
47161;SDS011;32921;53.256;8.198;2023-04-28T09:58:58;11.52;;;5.00;;
47161;SDS011;32921;53.256;8.198;2023-04-28T10:01:31;11.70;;;6.30;;
47161;SDS011;32921;53.256;8.198;2023-04-28T10:04:01;10.05;;;5.57;;
47161;SDS011;32921;53.256;8.198;2023-04-28T10:06:28;10.85;;;5.53;;
47161;SDS011;32921;53.256;8.198;2023-04-28T10:08:54;10.45;;;5.22;;
47161;SDS011;32921;53.256;8.198;2023-04-28T10:11:22;6.82;;;4.05;;
47161;SDS011;32921;53.256;8.198;2023-04-28T10:13:49;15.07;;;6.63;;
47161;SDS011;32921;53.256;8.198;2023-04-28T10:16:15;11.02;;;4.93;;
47161;SDS011;32921;53.256;8.198;2023-04-28T10:18:42;11.02;;;6.15;;
47161;SDS011;32921;53.256;8.198;2023-04-28T10:21:09;10.02;;;5.53;;
47161;SDS011;32921;53.256;8.198;2023-04-28T10:26:15;10.52;;;4.30;;
47161;SDS011;32921;53.256;8.198;2023-04-28T10:28:46;11.60;;;5.90;;
47161;SDS011;32921;53.256;8.198;2023-04-28T10:31:13;10.55;;;5.70;;
47161;SDS011;32921;53.256;8.198;2023-04-28T10:33:41;13.00;;;5.88;;
47161;SDS011;32921;53.256;8.198;2023-04-28T10:36:07;10.98;;;5.72;;
47161;SDS011;32921;53.256;8.198;2023-04-28T10:38:34;10.30;;;6.28;;
47161;SDS011;32921;53.256;8.198;2023-04-28T10:41:00;11.32;;;6.90;;
47161;SDS011;32921;53.256;8.198;2023-04-28T10:56:11;14.50;;;7.05;;
47161;SDS011;32921;53.256;8.198;2023-04-28T10:58:42;9.82;;;5.82;;
47161;SDS011;32921;53.256;8.198;2023-04-28T11:04:00;11.68;;;6.53;;
47161;SDS011;32921;53.256;8.198;2023-04-28T11:06:42;10.60;;;6.43;;
47161;SDS011;32921;53.256;8.198;2023-04-28T11:11:39;10.75;;;6.70;;
47161;SDS011;32921;53.256;8.198;2023-04-28T11:19:27;8.40;;;4.40;;
47161;SDS011;32921;53.256;8.198;2023-04-28T11:21:58;12.95;;;7.22;;
47161;SDS011;32921;53.256;8.198;2023-04-28T11:24:26;11.45;;;6.70;;
47161;SDS011;32921;53.256;8.198;2023-04-28T11:26:55;15.88;;;6.75;;
47161;SDS011;32921;53.256;8.198;2023-04-28T11:32:00;7.75;;;4.63;;
47161;SDS011;32921;53.256;8.198;2023-04-28T11:34:27;14.27;;;6.15;;
47161;SDS011;32921;53.256;8.198;2023-04-28T11:36:52;14.00;;;7.28;;
47161;SDS011;32921;53.256;8.198;2023-04-28T11:39:24;13.50;;;8.10;;
47161;SDS011;32921;53.256;8.198;2023-04-28T11:41:54;8.60;;;5.90;;
47161;SDS011;32921;53.256;8.198;2023-04-28T11:44:21;9.98;;;5.90;;
47161;SDS011;32921;53.256;8.198;2023-04-28T11:46:49;13.77;;;7.18;;
47161;SDS011;32921;53.256;8.198;2023-04-28T11:49:24;13.50;;;6.53;;
47161;SDS011;32921;53.256;8.198;2023-04-28T11:51:54;11.65;;;5.70;;
47161;SDS011;32921;53.256;8.198;2023-04-28T11:54:20;13.25;;;7.72;;
47161;SDS011;32921;53.256;8.198;2023-04-28T11:56:47;10.90;;;4.88;;
47161;SDS011;32921;53.256;8.198;2023-04-28T11:59:13;13.90;;;6.32;;
47161;SDS011;32921;53.256;8.198;2023-04-28T12:01:46;15.68;;;7.68;;
47161;SDS011;32921;53.256;8.198;2023-04-28T12:04:28;8.95;;;4.22;;
47161;SDS011;32921;53.256;8.198;2023-04-28T12:06:57;14.32;;;6.47;;
47161;SDS011;32921;53.256;8.198;2023-04-28T12:09:38;16.45;;;6.55;;
47161;SDS011;32921;53.256;8.198;2023-04-28T12:12:06;16.27;;;8.68;;
47161;SDS011;32921;53.256;8.198;2023-04-28T12:17:35;15.13;;;7.43;;
47161;SDS011;32921;53.256;8.198;2023-04-28T12:20:03;14.63;;;8.05;;
47161;SDS011;32921;53.256;8.198;2023-04-28T12:22:41;14.60;;;7.07;;
47161;SDS011;32921;53.256;8.198;2023-04-28T12:25:16;16.67;;;8.68;;
47161;SDS011;32921;53.256;8.198;2023-04-28T12:30:29;15.02;;;6.95;;
47161;SDS011;32921;53.256;8.198;2023-04-28T12:32:56;17.35;;;8.38;;
47161;SDS011;32921;53.256;8.198;2023-04-28T12:35:22;16.77;;;8.98;;
47161;SDS011;32921;53.256;8.198;2023-04-28T12:37:49;13.10;;;6.82;;
47161;SDS011;32921;53.256;8.198;2023-04-28T12:40:16;14.13;;;8.75;;
47161;SDS011;32921;53.256;8.198;2023-04-28T12:42:42;17.58;;;8.32;;
47161;SDS011;32921;53.256;8.198;2023-04-28T12:45:07;12.90;;;7.03;;
47161;SDS011;32921;53.256;8.198;2023-04-28T12:47:34;13.55;;;7.47;;
47161;SDS011;32921;53.256;8.198;2023-04-28T12:50:00;16.80;;;7.70;;
47161;SDS011;32921;53.256;8.198;2023-04-28T12:52:25;16.55;;;7.97;;
47161;SDS011;32921;53.256;8.198;2023-04-28T12:54:51;13.85;;;8.20;;
47161;SDS011;32921;53.256;8.198;2023-04-28T12:57:17;32.90;;;9.68;;
47161;SDS011;32921;53.256;8.198;2023-04-28T12:59:44;18.20;;;8.18;;
47161;SDS011;32921;53.256;8.198;2023-04-28T13:02:11;12.27;;;8.75;;
47161;SDS011;32921;53.256;8.198;2023-04-28T13:04:37;19.10;;;9.65;;
47161;SDS011;32921;53.256;8.198;2023-04-28T13:07:03;14.98;;;6.60;;
47161;SDS011;32921;53.256;8.198;2023-04-28T13:09:31;11.77;;;7.10;;
47161;SDS011;32921;53.256;8.198;2023-04-28T13:11:56;15.07;;;8.90;;
47161;SDS011;32921;53.256;8.198;2023-04-28T13:14:22;15.85;;;9.35;;
47161;SDS011;32921;53.256;8.198;2023-04-28T13:16:48;10.82;;;4.53;;
47161;SDS011;32921;53.256;8.198;2023-04-28T13:19:13;17.27;;;9.88;;
47161;SDS011;32921;53.256;8.198;2023-04-28T13:21:39;18.52;;;8.93;;
47161;SDS011;32921;53.256;8.198;2023-04-28T13:24:08;16.73;;;7.32;;
47161;SDS011;32921;53.256;8.198;2023-04-28T13:26:35;11.77;;;6.70;;
47161;SDS011;32921;53.256;8.198;2023-04-28T13:29:02;17.63;;;7.88;;
47161;SDS011;32921;53.256;8.198;2023-04-28T13:31:28;19.98;;;11.63;;
47161;SDS011;32921;53.256;8.198;2023-04-28T13:33:54;19.52;;;11.15;;
47161;SDS011;32921;53.256;8.198;2023-04-28T13:36:20;22.35;;;11.95;;
47161;SDS011;32921;53.256;8.198;2023-04-28T13:38:47;19.30;;;12.55;;
47161;SDS011;32921;53.256;8.198;2023-04-28T13:41:13;19.63;;;12.48;;
47161;SDS011;32921;53.256;8.198;2023-04-28T13:43:40;20.83;;;10.93;;
47161;SDS011;32921;53.256;8.198;2023-04-28T13:46:06;18.13;;;13.13;;
47161;SDS011;32921;53.256;8.198;2023-04-28T13:48:36;17.52;;;12.45;;
47161;SDS011;32921;53.256;8.198;2023-04-28T13:51:02;17.83;;;12.32;;
47161;SDS011;32921;53.256;8.198;2023-04-28T13:53:28;13.63;;;9.95;;
47161;SDS011;32921;53.256;8.198;2023-04-28T13:55:54;18.27;;;10.35;;
47161;SDS011;32921;53.256;8.198;2023-04-28T13:58:28;19.38;;;12.30;;
47161;SDS011;32921;53.256;8.198;2023-04-28T14:00:54;20.95;;;13.05;;
47161;SDS011;32921;53.256;8.198;2023-04-28T14:03:21;16.80;;;12.10;;
47161;SDS011;32921;53.256;8.198;2023-04-28T14:05:47;17.13;;;11.98;;
47161;SDS011;32921;53.256;8.198;2023-04-28T14:08:15;19.02;;;11.18;;
47161;SDS011;32921;53.256;8.198;2023-04-28T14:10:41;17.90;;;9.82;;
47161;SDS011;32921;53.256;8.198;2023-04-28T14:13:07;14.82;;;10.32;;
47161;SDS011;32921;53.256;8.198;2023-04-28T14:15:32;14.63;;;9.70;;
47161;SDS011;32921;53.256;8.198;2023-04-28T14:17:58;19.00;;;9.00;;
47161;SDS011;32921;53.256;8.198;2023-04-28T14:20:24;17.35;;;9.77;;
47161;SDS011;32921;53.256;8.198;2023-04-28T14:22:49;13.88;;;9.30;;
47161;SDS011;32921;53.256;8.198;2023-04-28T14:25:15;14.43;;;9.32;;
47161;SDS011;32921;53.256;8.198;2023-04-28T14:27:42;14.52;;;9.82;;
47161;SDS011;32921;53.256;8.198;2023-04-28T14:30:08;13.35;;;8.85;;
47161;SDS011;32921;53.256;8.198;2023-04-28T14:32:35;16.92;;;9.60;;
47161;SDS011;32921;53.256;8.198;2023-04-28T14:35:02;16.63;;;9.15;;
47161;SDS011;32921;53.256;8.198;2023-04-28T14:37:29;19.15;;;9.88;;
47161;SDS011;32921;53.256;8.198;2023-04-28T14:39:56;17.52;;;8.95;;
47161;SDS011;32921;53.256;8.198;2023-04-28T14:42:26;14.27;;;9.80;;
47161;SDS011;32921;53.256;8.198;2023-04-28T14:44:53;14.02;;;9.75;;
47161;SDS011;32921;53.256;8.198;2023-04-28T14:47:19;16.60;;;11.32;;
47161;SDS011;32921;53.256;8.198;2023-04-28T14:49:45;15.40;;;10.85;;
47161;SDS011;32921;53.256;8.198;2023-04-28T14:52:12;15.15;;;9.45;;
47161;SDS011;32921;53.256;8.198;2023-04-28T14:54:38;17.23;;;10.65;;
47161;SDS011;32921;53.256;8.198;2023-04-28T14:57:03;16.27;;;11.20;;
47161;SDS011;32921;53.256;8.198;2023-04-28T14:59:29;15.77;;;11.52;;
47161;SDS011;32921;53.256;8.198;2023-04-28T15:01:54;20.20;;;13.05;;
47161;SDS011;32921;53.256;8.198;2023-04-28T15:04:20;17.42;;;12.63;;